Página principal
METAR-TAF:

METAR-TAF

Aeroportos :

Aeroporto Internacional Diori Hamani

Niamey, Níger

latitude: 13-29N, longitude: 002-10E, altura: 223 m

Observação actual do tempo

O boletim foi feito há 1 hora e 0 minutos, às 09:00 UTC
Vento 8 kt de nor-noroeste, variando entre oes-noroeste e norte
Temperatura 26°C
Humidade 15%
Pressão 1014 hPa
Visibilidade: 4000 m
poeira extensa

METAR: DRRN 190900Z 34008KT 300V360 4000 DU NSC 26/M03 Q1014 BECMG 6000

Hora: 11:00 (10:00 UTC)

Previsão

O boletim foi feito há 5 horas e 0 minutos, às 05:00 UTC
Previsão válida de 19 às 06 UTC a 20 às 12 UTC
Vento 8 kt de es-sudeste
Visibilidade: 4000 m
poeira extensa
Tornando-se
de 19 às 14 UTC a 19 às 16 UTC
Visibilidade: 6000 m
Temporariamente
de 19 às 17 UTC a 19 às 20 UTC
Visibilidade: 4000 m
poeira extensa

TAF: DRRN 190500Z 1906/2012 12008KT 4000 DU NSC BECMG 1914/1916 6000 NSW TEMPO 1917/1920 4000 DU

Observações e previsões do tempo de mais de 4000 aeroportos (mensagens METAR e TAF).

As estações disponíveis são os pontos amarelos e vermelhos sobre o mapa.

Mova o rato sobre o mapa para ver o nome da estação.

Depois clique no ponto para visualizar as observações e previsões meteorológicas.

Para alterar o mapa : clique nos botões verdes com uma cruz preta para aumentar o zoom; no botão verde com uma pitada de zoom; ou nas setas verdes para mapas adjacentes.


METAR-TAF: